createdAt,value
2024-04-19T00:00:08.730Z,1.92
2024-04-19T00:00:53.057Z,1.83
2024-04-19T00:01:48.743Z,2.01
2024-04-19T00:02:22.158Z,1.92
2024-04-19T00:02:55.948Z,1.89
2024-04-19T00:03:29.989Z,1.84
2024-04-19T00:04:03.352Z,1.89
2024-04-19T00:04:36.908Z,1.88
2024-04-19T00:05:11.969Z,1.91
2024-04-19T00:05:46.142Z,2.00
2024-04-19T00:06:37.681Z,1.80
2024-04-19T00:07:11.297Z,1.93
2024-04-19T00:07:50.590Z,2.04
2024-04-19T00:08:24.922Z,2.07
2024-04-19T00:08:58.814Z,1.94
2024-04-19T00:09:32.435Z,2.05
2024-04-19T00:10:06.180Z,1.95
2024-04-19T00:10:39.757Z,1.82
2024-04-19T00:11:13.339Z,1.78
2024-04-19T00:11:47.905Z,1.95
2024-04-19T00:12:21.559Z,1.91
2024-04-19T00:12:55.996Z,1.76
2024-04-19T00:13:29.313Z,1.78
2024-04-19T00:14:02.476Z,1.89
2024-04-19T00:14:36.050Z,1.93
2024-04-19T00:15:10.153Z,1.83
2024-04-19T00:15:44.448Z,1.86
2024-04-19T00:16:18.173Z,1.85
2024-04-19T00:16:52.151Z,1.90
2024-04-19T00:17:28.625Z,1.97
2024-04-19T00:18:06.951Z,1.77
2024-04-19T00:18:46.804Z,1.92
2024-04-19T00:19:20.601Z,1.96
2024-04-19T00:19:54.096Z,1.97
2024-04-19T00:20:27.347Z,1.95
2024-04-19T00:21:14.028Z,1.84
2024-04-19T00:21:47.353Z,1.86
2024-04-19T00:22:20.780Z,1.87
2024-04-19T00:22:54.121Z,1.94
2024-04-19T00:23:27.280Z,1.99
2024-04-19T00:24:00.881Z,1.99
2024-04-19T00:24:34.622Z,1.99
2024-04-19T00:25:08.499Z,2.08
2024-04-19T00:25:42.242Z,1.93
2024-04-19T00:26:15.385Z,1.84
2024-04-19T00:26:49.088Z,1.96
2024-04-19T00:27:42.369Z,1.94
2024-04-19T00:28:16.832Z,1.82
2024-04-19T00:28:50.519Z,1.73
2024-04-19T00:29:24.105Z,1.83
2024-04-19T00:29:57.637Z,1.80
2024-04-19T00:30:31.284Z,1.97
2024-04-19T00:31:04.912Z,2.02
2024-04-19T00:31:38.269Z,1.96
2024-04-19T00:32:11.349Z,1.84
2024-04-19T00:32:46.113Z,1.83
2024-04-19T00:33:22.056Z,1.76
2024-04-19T00:33:55.358Z,1.80
2024-04-19T00:34:28.993Z,1.80
2024-04-19T00:35:02.252Z,1.83
2024-04-19T00:35:35.326Z,1.83
2024-04-19T00:36:08.588Z,1.85
2024-04-19T00:36:41.944Z,1.86
2024-04-19T00:37:15.182Z,1.85
2024-04-19T00:37:48.906Z,1.97
2024-04-19T00:38:40.290Z,2.17
2024-04-19T00:39:14.037Z,2.01
2024-04-19T00:39:47.448Z,1.89
2024-04-19T00:40:21.166Z,1.85
2024-04-19T00:40:56.182Z,1.97
2024-04-19T00:41:29.624Z,1.96
2024-04-19T00:42:02.961Z,1.93
2024-04-19T00:42:36.221Z,1.88
2024-04-19T00:43:09.473Z,1.91
2024-04-19T00:43:42.713Z,1.87
2024-04-19T00:44:15.948Z,1.92
2024-04-19T00:44:49.619Z,2.01
2024-04-19T00:45:39.164Z,1.97
2024-04-19T00:46:13.174Z,2.02
2024-04-19T00:46:48.892Z,1.87
2024-04-19T00:47:37.126Z,1.88
2024-04-19T00:48:29.109Z,2.12
2024-04-19T00:49:03.146Z,1.96
2024-04-19T00:49:37.227Z,1.92
2024-04-19T00:50:11.189Z,1.86
2024-04-19T00:50:45.675Z,2.11
2024-04-19T00:51:20.627Z,2.09
2024-04-19T00:51:54.185Z,2.06
2024-04-19T00:52:28.404Z,1.93
2024-04-19T00:53:03.996Z,1.87
2024-04-19T00:53:38.768Z,1.82
2024-04-19T00:54:30.333Z,1.99
2024-04-19T00:55:03.689Z,2.16
2024-04-19T00:55:37.395Z,1.95
2024-04-19T00:56:11.050Z,1.84
2024-04-19T00:56:44.127Z,1.85
2024-04-19T00:57:17.283Z,1.83
2024-04-19T00:57:51.647Z,1.86
2024-04-19T00:58:27.323Z,1.81
2024-04-19T00:59:01.020Z,1.81
2024-04-19T00:59:35.122Z,1.83
2024-04-19T01:00:10.603Z,1.85
2024-04-19T01:00:43.967Z,1.84
2024-04-19T01:01:19.104Z,1.80
2024-04-19T01:01:53.321Z,1.81
2024-04-19T01:02:27.773Z,1.79
2024-04-19T01:03:21.699Z,1.81
2024-04-19T01:03:56.983Z,1.75
2024-04-19T01:04:30.515Z,1.78
2024-04-19T01:05:04.388Z,1.78
2024-04-19T01:05:37.706Z,1.85
2024-04-19T01:06:31.052Z,1.93
2024-04-19T01:07:04.497Z,1.92
2024-04-19T01:07:38.137Z,1.93
2024-04-19T01:08:12.341Z,1.87
2024-04-19T01:08:46.916Z,1.82
2024-04-19T01:09:37.973Z,1.84
2024-04-19T01:10:11.634Z,2.09
2024-04-19T01:10:44.828Z,2.27
2024-04-19T01:11:18.430Z,2.11
2024-04-19T01:11:51.726Z,2.06
2024-04-19T01:12:25.343Z,1.99
2024-04-19T01:12:59.808Z,1.97
2024-04-19T01:14:00.397Z,1.93
2024-04-19T01:14:33.775Z,1.89
2024-04-19T01:15:21.699Z,1.89
2024-04-19T01:16:02.395Z,1.93
2024-04-19T01:16:55.925Z,1.94
2024-04-19T01:17:29.602Z,2.00
2024-04-19T01:18:04.950Z,1.95
2024-04-19T01:18:38.782Z,1.98
2024-04-19T01:19:16.316Z,1.98
2024-04-19T01:19:49.739Z,2.00
2024-04-19T01:20:41.353Z,1.97
2024-04-19T01:21:14.982Z,2.01
2024-04-19T01:21:49.293Z,2.07
2024-04-19T01:22:23.331Z,2.08
2024-04-19T01:22:58.308Z,2.06
2024-04-19T01:23:32.228Z,1.98
2024-04-19T01:24:32.541Z,2.21
2024-04-19T01:25:09.206Z,2.33
2024-04-19T01:25:43.043Z,2.31
2024-04-19T01:26:16.354Z,2.28
2024-04-19T01:26:49.927Z,2.31
2024-04-19T01:27:23.243Z,2.14
2024-04-19T01:27:57.283Z,2.16
2024-04-19T01:28:30.869Z,2.18
2024-04-19T01:29:04.182Z,2.15
2024-04-19T01:29:38.330Z,2.12
2024-04-19T01:30:11.847Z,2.21
2024-04-19T01:30:47.134Z,2.24
2024-04-19T01:31:20.415Z,2.26
2024-04-19T01:31:53.471Z,2.30
2024-04-19T01:32:26.855Z,2.28
2024-04-19T01:33:00.515Z,2.24
2024-04-19T01:33:33.793Z,2.28
2024-04-19T01:34:07.351Z,2.37
2024-04-19T01:34:40.758Z,2.44
2024-04-19T01:35:14.261Z,2.32
2024-04-19T01:35:48.087Z,2.34
2024-04-19T01:36:21.610Z,2.28
2024-04-19T01:36:55.377Z,2.47
2024-04-19T01:37:28.909Z,2.45
2024-04-19T01:38:02.483Z,2.34
2024-04-19T01:38:35.586Z,2.55
2024-04-19T01:39:09.613Z,2.44
2024-04-19T01:39:43.842Z,2.34
2024-04-19T01:40:17.346Z,2.36
2024-04-19T01:40:50.522Z,2.58
2024-04-19T01:41:24.075Z,2.56
2024-04-19T01:41:57.582Z,2.62
2024-04-19T01:42:31.305Z,2.60
2024-04-19T01:43:10.715Z,2.46
2024-04-19T01:43:44.726Z,2.38
2024-04-19T01:44:17.950Z,2.43
2024-04-19T01:44:51.278Z,2.53
2024-04-19T01:45:24.473Z,2.43
2024-04-19T01:45:57.700Z,2.32
2024-04-19T01:46:30.725Z,2.33
2024-04-19T01:47:04.009Z,2.56
2024-04-19T01:47:39.260Z,2.32
2024-04-19T01:48:12.826Z,2.31
2024-04-19T01:48:46.966Z,2.57
2024-04-19T01:49:20.829Z,2.47
2024-04-19T01:49:54.272Z,2.58
2024-04-19T01:50:27.644Z,2.62
2024-04-19T01:51:01.154Z,2.61
2024-04-19T01:51:34.717Z,2.59
2024-04-19T01:52:08.045Z,2.56
2024-04-19T01:52:41.549Z,2.51
2024-04-19T01:53:14.947Z,2.57
2024-04-19T01:53:49.133Z,2.47
2024-04-19T01:54:23.853Z,2.54
2024-04-19T01:54:58.823Z,2.52
2024-04-19T01:55:32.318Z,2.36
2024-04-19T01:56:05.949Z,2.45
2024-04-19T01:56:49.255Z,2.44
2024-04-19T01:57:22.605Z,2.30
2024-04-19T01:57:56.198Z,2.41
2024-04-19T01:58:29.527Z,2.38
2024-04-19T01:59:02.836Z,2.53
2024-04-19T01:59:36.213Z,2.55
2024-04-19T02:00:10.351Z,2.47
2024-04-19T02:00:46.580Z,2.47
2024-04-19T02:01:22.723Z,2.45
2024-04-19T02:01:57.016Z,2.45
2024-04-19T02:02:30.199Z,2.58
2024-04-19T02:03:03.840Z,2.51
2024-04-19T02:03:39.700Z,2.43
2024-04-19T02:04:13.154Z,2.31
2024-04-19T02:04:49.834Z,2.43
2024-04-19T02:05:23.224Z,2.29
2024-04-19T02:06:08.942Z,2.32
2024-04-19T02:06:42.142Z,2.23
2024-04-19T02:07:35.275Z,2.53
2024-04-19T02:08:08.633Z,2.54
2024-04-19T02:08:42.494Z,2.48
2024-04-19T02:09:15.584Z,2.52
2024-04-19T02:09:49.542Z,2.38
2024-04-19T02:10:23.002Z,2.27
2024-04-19T02:11:00.792Z,2.31
2024-04-19T02:11:34.130Z,2.36
2024-04-19T02:12:07.504Z,2.29
2024-04-19T02:12:40.818Z,2.23
2024-04-19T02:13:13.989Z,2.25
2024-04-19T02:13:47.080Z,2.31
2024-04-19T02:14:20.566Z,2.43
2024-04-19T02:14:54.961Z,2.32
2024-04-19T02:15:28.460Z,2.27
2024-04-19T02:16:02.049Z,2.46
2024-04-19T02:16:35.373Z,2.41
2024-04-19T02:17:08.925Z,2.50
2024-04-19T02:17:42.439Z,2.39
2024-04-19T02:18:16.929Z,2.34
2024-04-19T02:18:50.441Z,2.49
2024-04-19T02:19:23.424Z,2.43
2024-04-19T02:19:56.597Z,2.35
2024-04-19T02:20:29.717Z,2.40
2024-04-19T02:21:02.958Z,2.24
2024-04-19T02:21:36.440Z,2.32
2024-04-19T02:22:09.806Z,2.48
2024-04-19T02:22:43.063Z,2.43
2024-04-19T02:23:40.551Z,2.33
2024-04-19T02:24:13.705Z,2.26
2024-04-19T02:24:48.048Z,2.32
2024-04-19T02:25:22.535Z,2.44
2024-04-19T02:25:55.821Z,2.55
2024-04-19T02:26:30.303Z,2.66
2024-04-19T02:27:07.468Z,2.68
2024-04-19T02:27:59.214Z,2.51
2024-04-19T02:28:52.642Z,2.43
2024-04-19T02:29:44.236Z,2.30
2024-04-19T02:30:38.034Z,2.25
2024-04-19T02:31:11.732Z,2.30
2024-04-19T02:31:45.168Z,2.32
2024-04-19T02:32:18.692Z,2.36
2024-04-19T02:32:52.280Z,2.33
2024-04-19T02:33:25.700Z,2.41
2024-04-19T02:34:17.796Z,2.54
2024-04-19T02:34:52.459Z,2.56
2024-04-19T02:35:25.545Z,2.54
2024-04-19T02:35:58.966Z,2.49
2024-04-19T02:36:32.433Z,2.57
2024-04-19T02:37:06.112Z,2.48
2024-04-19T02:37:39.658Z,2.47
2024-04-19T02:38:12.907Z,2.42
2024-04-19T02:38:46.484Z,2.38
2024-04-19T02:39:19.695Z,2.50
2024-04-19T02:39:53.007Z,2.55
2024-04-19T02:40:27.629Z,2.42
2024-04-19T02:41:01.702Z,2.41
2024-04-19T02:41:35.001Z,2.36
2024-04-19T02:42:08.090Z,2.49
2024-04-19T02:42:59.207Z,2.40
2024-04-19T02:43:33.221Z,2.42
2024-04-19T02:44:06.456Z,2.55
2024-04-19T02:44:39.673Z,2.48
2024-04-19T02:45:12.752Z,2.41
2024-04-19T02:45:53.101Z,2.62
2024-04-19T02:46:30.934Z,2.56
2024-04-19T02:47:04.253Z,2.55
2024-04-19T02:47:37.998Z,2.62
2024-04-19T02:48:11.624Z,2.57
2024-04-19T02:48:45.427Z,2.53
2024-04-19T02:49:18.624Z,2.49
2024-04-19T02:49:51.604Z,2.48
2024-04-19T02:50:24.625Z,2.44
2024-04-19T02:50:58.362Z,2.42
2024-04-19T02:51:31.794Z,2.49
2024-04-19T02:52:05.907Z,2.44
2024-04-19T02:52:38.863Z,2.59
2024-04-19T02:53:11.788Z,2.78
2024-04-19T02:53:45.322Z,2.77
2024-04-19T02:54:18.584Z,2.73
2024-04-19T02:54:51.786Z,2.58
2024-04-19T02:55:25.063Z,2.54
2024-04-19T02:55:59.749Z,2.66
2024-04-19T02:56:32.754Z,2.52
2024-04-19T02:57:05.942Z,2.57
2024-04-19T02:57:39.048Z,2.40
2024-04-19T02:58:12.240Z,2.43
2024-04-19T02:58:48.442Z,2.39
2024-04-19T02:59:21.893Z,2.40
2024-04-19T02:59:55.864Z,2.33
2024-04-19T03:00:30.091Z,2.36
2024-04-19T03:01:03.494Z,2.36
2024-04-19T03:01:37.811Z,2.36
2024-04-19T03:02:11.276Z,2.41
2024-04-19T03:02:45.031Z,2.63
2024-04-19T03:03:18.464Z,2.69
2024-04-19T03:03:51.684Z,2.50
2024-04-19T03:04:26.231Z,2.46
2024-04-19T03:04:59.432Z,2.49
2024-04-19T03:05:32.575Z,2.38
2024-04-19T03:06:05.889Z,2.38
2024-04-19T03:06:39.200Z,2.30
2024-04-19T03:07:12.655Z,2.37
2024-04-19T03:07:45.814Z,2.41
2024-04-19T03:08:18.884Z,2.59
2024-04-19T03:08:52.204Z,2.68
2024-04-19T03:09:50.532Z,2.48
2024-04-19T03:10:23.984Z,2.39
2024-04-19T03:10:56.990Z,2.26
2024-04-19T03:11:30.353Z,2.42
2024-04-19T03:12:03.911Z,2.38
2024-04-19T03:12:37.092Z,2.46
2024-04-19T03:13:11.689Z,2.60
2024-04-19T03:13:45.139Z,2.51
2024-04-19T03:14:18.467Z,2.47
2024-04-19T03:14:51.895Z,2.33
2024-04-19T03:15:25.383Z,2.28
2024-04-19T03:16:08.752Z,2.27
2024-04-19T03:16:47.738Z,2.37
2024-04-19T03:17:21.080Z,2.26
2024-04-19T03:17:54.346Z,2.50
2024-04-19T03:18:30.123Z,2.41
2024-04-19T03:19:03.219Z,2.46
2024-04-19T03:19:36.394Z,2.59
2024-04-19T03:20:09.769Z,2.59
2024-04-19T03:20:43.331Z,2.41
2024-04-19T03:21:16.498Z,2.44
2024-04-19T03:21:51.829Z,2.40
2024-04-19T03:22:25.298Z,2.47
2024-04-19T03:22:58.638Z,2.45
2024-04-19T03:23:31.868Z,2.31
2024-04-19T03:24:05.540Z,2.28
2024-04-19T03:24:38.858Z,2.37
2024-04-19T03:25:12.278Z,2.42
2024-04-19T03:25:45.405Z,2.30
2024-04-19T03:26:18.521Z,2.33
2024-04-19T03:26:51.828Z,2.50
2024-04-19T03:27:25.436Z,2.47
2024-04-19T03:27:58.656Z,2.43
2024-04-19T03:28:31.773Z,2.29
2024-04-19T03:29:05.064Z,2.33
2024-04-19T03:29:38.234Z,2.50
2024-04-19T03:30:11.904Z,2.51
2024-04-19T03:30:45.446Z,2.44
2024-04-19T03:31:18.662Z,2.40
2024-04-19T03:31:51.757Z,2.38
2024-04-19T03:32:25.481Z,2.43
2024-04-19T03:32:58.773Z,2.46
2024-04-19T03:33:31.839Z,2.42
2024-04-19T03:34:04.951Z,2.50
2024-04-19T03:34:41.302Z,2.59
2024-04-19T03:35:16.574Z,2.52
2024-04-19T03:35:50.356Z,2.54
2024-04-19T03:36:23.513Z,2.52
2024-04-19T03:36:56.672Z,2.44
2024-04-19T03:37:29.721Z,2.64
2024-04-19T03:38:02.835Z,2.56
2024-04-19T03:38:36.288Z,2.69
2024-04-19T03:39:10.359Z,2.69
2024-04-19T03:39:46.383Z,2.66
2024-04-19T03:40:19.906Z,2.61
2024-04-19T03:40:56.831Z,2.47
2024-04-19T03:41:34.889Z,2.62
2024-04-19T03:42:15.257Z,2.51
2024-04-19T03:42:49.986Z,2.59
2024-04-19T03:43:24.923Z,2.62
2024-04-19T03:44:16.763Z,2.71
2024-04-19T03:45:11.042Z,2.71
2024-04-19T03:45:47.359Z,2.51
2024-04-19T03:46:20.677Z,2.49
2024-04-19T03:46:53.757Z,2.67
2024-04-19T03:47:26.876Z,2.61
2024-04-19T03:48:00.290Z,2.50
2024-04-19T03:48:33.285Z,2.44
2024-04-19T03:49:06.330Z,2.50
2024-04-19T03:49:39.356Z,2.57
2024-04-19T03:50:12.523Z,2.78
2024-04-19T03:50:47.380Z,2.67
2024-04-19T03:51:20.618Z,2.58
2024-04-19T03:51:54.662Z,2.71
2024-04-19T03:52:27.698Z,2.83
2024-04-19T03:53:01.534Z,2.75
2024-04-19T03:53:34.443Z,2.76
2024-04-19T03:54:07.518Z,2.71
2024-04-19T03:54:42.372Z,2.68
2024-04-19T03:55:15.540Z,2.57
2024-04-19T03:55:48.748Z,2.68
2024-04-19T03:56:21.826Z,2.63
2024-04-19T03:56:54.978Z,2.60
2024-04-19T03:57:28.087Z,2.50
2024-04-19T03:58:01.216Z,2.47
2024-04-19T03:58:34.264Z,2.50
2024-04-19T03:59:07.484Z,2.52
2024-04-19T03:59:40.908Z,2.63
2024-04-19T04:00:22.868Z,2.57
2024-04-19T04:00:56.359Z,2.76
2024-04-19T04:01:29.556Z,2.68
2024-04-19T04:02:04.958Z,2.74
2024-04-19T04:02:38.017Z,2.71
2024-04-19T04:03:11.202Z,2.77
2024-04-19T04:03:46.968Z,2.75
2024-04-19T04:04:20.179Z,2.63
2024-04-19T04:04:53.618Z,2.75
2024-04-19T04:05:26.893Z,2.81
2024-04-19T04:06:00.278Z,2.55
2024-04-19T04:06:33.601Z,2.60
2024-04-19T04:07:06.810Z,2.73
2024-04-19T04:07:39.967Z,2.73
2024-04-19T04:08:13.033Z,2.70
2024-04-19T04:08:49.456Z,2.78
2024-04-19T04:09:22.553Z,2.73
2024-04-19T04:09:56.838Z,2.76
2024-04-19T04:10:30.719Z,2.79
2024-04-19T04:11:03.953Z,2.86
2024-04-19T04:11:37.027Z,2.86
2024-04-19T04:12:10.056Z,2.77
2024-04-19T04:12:43.372Z,2.74
2024-04-19T04:13:16.411Z,2.71
2024-04-19T04:13:49.692Z,2.74
2024-04-19T04:14:22.796Z,2.59
2024-04-19T04:14:55.980Z,2.60
2024-04-19T04:15:29.706Z,2.71
2024-04-19T04:16:02.920Z,2.85
2024-04-19T04:16:36.059Z,2.86
2024-04-19T04:17:09.248Z,2.82
2024-04-19T04:17:42.505Z,2.79
2024-04-19T04:18:16.073Z,2.80
2024-04-19T04:18:49.868Z,2.76
2024-04-19T04:19:23.531Z,2.71
2024-04-19T04:19:56.947Z,2.63
2024-04-19T04:20:31.088Z,2.55
2024-04-19T04:21:04.282Z,2.67
2024-04-19T04:21:37.431Z,2.67
2024-04-19T04:22:10.538Z,2.59
2024-04-19T04:22:43.969Z,2.59
2024-04-19T04:23:16.999Z,2.56
2024-04-19T04:23:50.085Z,2.64
2024-04-19T04:24:23.066Z,2.75
2024-04-19T04:24:56.012Z,2.76
2024-04-19T04:25:29.112Z,2.78
2024-04-19T04:26:02.108Z,2.77
2024-04-19T04:26:35.429Z,2.86
2024-04-19T04:27:08.523Z,2.88
2024-04-19T04:27:41.593Z,2.89
2024-04-19T04:28:14.723Z,2.81
2024-04-19T04:28:47.794Z,2.80
2024-04-19T04:29:21.122Z,2.75
2024-04-19T04:29:54.302Z,2.65
2024-04-19T04:30:27.496Z,2.62
2024-04-19T04:31:00.556Z,2.56
2024-04-19T04:31:33.563Z,2.51
2024-04-19T04:32:07.404Z,2.64
2024-04-19T04:32:40.961Z,2.78
2024-04-19T04:33:14.366Z,2.72
2024-04-19T04:33:47.539Z,2.64
2024-04-19T04:34:20.935Z,2.56
2024-04-19T04:34:53.942Z,2.55
2024-04-19T04:35:27.128Z,2.49
2024-04-19T04:36:01.307Z,2.47
2024-04-19T04:36:34.813Z,2.40
2024-04-19T04:37:08.136Z,2.38
2024-04-19T04:37:41.119Z,2.35
2024-04-19T04:38:14.845Z,2.37
2024-04-19T04:38:47.836Z,2.39
2024-04-19T04:39:21.016Z,2.43
2024-04-19T04:39:54.045Z,2.40
2024-04-19T04:40:27.174Z,2.39
2024-04-19T04:41:00.336Z,2.37
2024-04-19T04:41:37.807Z,2.40
2024-04-19T04:42:10.868Z,2.33
2024-04-19T04:42:43.949Z,2.37
2024-04-19T04:43:17.568Z,2.37
2024-04-19T04:43:50.678Z,2.59
2024-04-19T04:44:23.883Z,2.66
2024-04-19T04:44:57.614Z,2.56
2024-04-19T04:45:32.724Z,2.49
2024-04-19T04:46:05.900Z,2.41
2024-04-19T04:46:39.389Z,2.31
2024-04-19T04:47:12.639Z,2.33
2024-04-19T04:47:45.813Z,2.34
2024-04-19T04:48:19.234Z,2.30
2024-04-19T04:48:52.625Z,2.31
2024-04-19T04:49:25.867Z,2.32
2024-04-19T04:49:59.458Z,2.36
2024-04-19T04:50:32.705Z,2.46
2024-04-19T04:51:08.562Z,2.65
2024-04-19T04:51:43.149Z,2.53
2024-04-19T04:52:16.196Z,2.52
2024-04-19T04:52:49.639Z,2.50
2024-04-19T04:53:23.340Z,2.44
2024-04-19T04:53:56.530Z,2.50
2024-04-19T04:54:30.476Z,2.48
2024-04-19T04:55:03.898Z,2.41
2024-04-19T04:55:37.307Z,2.44
2024-04-19T04:56:10.563Z,2.48
2024-04-19T04:56:43.840Z,2.50
2024-04-19T04:57:16.851Z,2.46
2024-04-19T04:57:49.914Z,2.51
2024-04-19T04:58:23.087Z,2.51
2024-04-19T04:58:56.339Z,2.54
2024-04-19T04:59:29.411Z,2.56
2024-04-19T05:00:02.416Z,2.58
2024-04-19T05:00:37.831Z,2.64
2024-04-19T05:01:10.938Z,2.84
2024-04-19T05:01:44.176Z,2.95
2024-04-19T05:02:17.281Z,2.87
2024-04-19T05:02:50.633Z,2.85
2024-04-19T05:03:24.673Z,2.79
2024-04-19T05:03:57.839Z,2.79
2024-04-19T05:04:31.226Z,2.71
2024-04-19T05:05:04.798Z,2.71
2024-04-19T05:05:38.403Z,2.73
2024-04-19T05:06:11.520Z,2.96
2024-04-19T05:06:44.709Z,2.85
2024-04-19T05:07:17.825Z,2.83
2024-04-19T05:07:51.850Z,2.99
2024-04-19T05:08:25.055Z,2.85
2024-04-19T05:08:58.205Z,2.76
2024-04-19T05:09:31.273Z,2.73
2024-04-19T05:10:04.653Z,2.66
2024-04-19T05:10:37.698Z,2.71
2024-04-19T05:11:10.785Z,2.76
2024-04-19T05:11:43.897Z,2.83
2024-04-19T05:12:17.034Z,2.85
2024-04-19T05:12:50.223Z,2.84
2024-04-19T05:13:23.391Z,2.78
2024-04-19T05:13:56.581Z,2.82
2024-04-19T05:14:29.586Z,2.85
2024-04-19T05:15:03.315Z,2.82
2024-04-19T05:15:39.059Z,2.84
2024-04-19T05:16:12.315Z,3.11
2024-04-19T05:16:45.373Z,3.05
2024-04-19T05:17:18.817Z,2.86
2024-04-19T05:17:52.216Z,2.89
2024-04-19T05:18:27.384Z,2.82
2024-04-19T05:19:01.493Z,2.82
2024-04-19T05:19:35.566Z,2.79
2024-04-19T05:20:11.657Z,2.84
2024-04-19T05:20:49.454Z,2.90
2024-04-19T05:21:22.831Z,2.88
2024-04-19T05:21:56.354Z,2.92
2024-04-19T05:22:30.234Z,2.94
2024-04-19T05:23:03.406Z,2.87
2024-04-19T05:23:36.665Z,2.91
2024-04-19T05:24:10.243Z,2.96
2024-04-19T05:24:47.247Z,2.92
2024-04-19T05:25:20.827Z,2.91
2024-04-19T05:25:54.145Z,2.94
2024-04-19T05:26:29.860Z,2.88
2024-04-19T05:27:03.732Z,2.95
2024-04-19T05:27:37.124Z,2.99
2024-04-19T05:28:10.122Z,3.08
2024-04-19T05:28:44.455Z,2.98
2024-04-19T05:29:17.367Z,2.99
2024-04-19T05:29:50.307Z,3.00
2024-04-19T05:30:23.474Z,3.02
2024-04-19T05:30:58.658Z,3.07
2024-04-19T05:31:32.117Z,3.11
2024-04-19T05:32:05.930Z,3.15
2024-04-19T05:32:39.029Z,3.07
2024-04-19T05:33:12.164Z,3.07
2024-04-19T05:33:46.059Z,3.10
2024-04-19T05:34:19.584Z,3.15
2024-04-19T05:34:53.190Z,3.20
2024-04-19T05:35:27.939Z,3.20
2024-04-19T05:36:01.323Z,3.21
2024-04-19T05:36:34.779Z,3.28
2024-04-19T05:37:08.148Z,3.30
2024-04-19T05:37:41.327Z,3.33
2024-04-19T05:38:14.681Z,3.32
2024-04-19T05:38:47.896Z,3.35
2024-04-19T05:39:21.172Z,3.42
2024-04-19T05:39:56.026Z,3.42
2024-04-19T05:40:30.686Z,3.45
2024-04-19T05:41:03.957Z,3.48
2024-04-19T05:41:36.947Z,3.56
2024-04-19T05:42:10.327Z,3.61
2024-04-19T05:42:45.337Z,3.62
2024-04-19T05:43:19.295Z,3.73
2024-04-19T05:43:52.716Z,3.79
2024-04-19T05:44:32.434Z,3.86
2024-04-19T05:45:05.985Z,4.04
2024-04-19T05:45:39.168Z,4.07
2024-04-19T05:46:12.372Z,3.99
2024-04-19T05:46:49.568Z,4.01
2024-04-19T05:47:23.235Z,4.01
2024-04-19T05:47:56.808Z,4.13
2024-04-19T05:48:30.165Z,4.15
2024-04-19T05:49:03.364Z,4.12
2024-04-19T05:49:36.951Z,4.29
2024-04-19T05:50:10.229Z,4.48
2024-04-19T05:50:43.452Z,4.43
2024-04-19T05:51:16.483Z,4.36
2024-04-19T05:51:49.641Z,3.98
2024-04-19T05:52:24.940Z,4.18
2024-04-19T05:53:00.625Z,4.09
2024-04-19T05:53:34.359Z,3.95
2024-04-19T05:54:07.390Z,3.92
2024-04-19T05:54:40.691Z,3.92
2024-04-19T05:55:18.551Z,3.89
2024-04-19T05:55:51.579Z,3.95
2024-04-19T05:56:24.615Z,4.03
2024-04-19T05:56:57.667Z,3.97
2024-04-19T05:57:30.973Z,3.97
2024-04-19T05:58:06.125Z,3.97
2024-04-19T05:58:39.327Z,4.17
2024-04-19T05:59:12.933Z,4.16
2024-04-19T05:59:46.078Z,3.88
2024-04-19T06:00:19.646Z,3.85
2024-04-19T06:00:53.492Z,3.82
2024-04-19T06:01:26.654Z,3.79
2024-04-19T06:01:59.964Z,3.71
2024-04-19T06:02:42.324Z,3.70
2024-04-19T06:03:15.953Z,3.66
2024-04-19T06:03:49.521Z,3.65
2024-04-19T06:04:23.249Z,3.62
2024-04-19T06:04:56.288Z,3.46
2024-04-19T06:05:30.005Z,3.46
2024-04-19T06:06:03.098Z,3.53
2024-04-19T06:06:36.055Z,3.59
2024-04-19T06:07:09.264Z,3.49
2024-04-19T06:07:42.373Z,3.53
2024-04-19T06:08:15.880Z,3.52
2024-04-19T06:08:49.040Z,3.45
2024-04-19T06:09:22.357Z,3.44
2024-04-19T06:09:55.588Z,3.38
2024-04-19T06:10:28.831Z,3.31
2024-04-19T06:11:02.105Z,3.42
2024-04-19T06:11:35.344Z,3.41
2024-04-19T06:12:09.141Z,3.40
2024-04-19T06:12:42.667Z,3.41
2024-04-19T06:13:16.578Z,3.35
2024-04-19T06:13:49.900Z,3.40
2024-04-19T06:14:22.952Z,3.44
2024-04-19T06:14:56.042Z,3.34
2024-04-19T06:15:29.395Z,3.39
2024-04-19T06:16:02.808Z,3.53
2024-04-19T06:16:36.115Z,3.53
2024-04-19T06:17:10.658Z,3.47
2024-04-19T06:17:43.802Z,3.49
2024-04-19T06:18:17.762Z,3.46
2024-04-19T06:18:51.151Z,3.42
2024-04-19T06:19:24.643Z,3.36
2024-04-19T06:19:57.962Z,3.36
2024-04-19T06:20:31.063Z,3.25
2024-04-19T06:21:05.178Z,3.19
2024-04-19T06:21:38.232Z,3.22
2024-04-19T06:22:11.796Z,3.25
2024-04-19T06:22:45.139Z,3.22
2024-04-19T06:23:18.448Z,3.24
2024-04-19T06:23:51.433Z,3.27
2024-04-19T06:24:25.257Z,3.24
2024-04-19T06:24:58.297Z,3.19
2024-04-19T06:25:31.371Z,3.18
2024-04-19T06:26:08.023Z,3.11
2024-04-19T06:26:41.165Z,3.07
2024-04-19T06:27:14.617Z,3.10
2024-04-19T06:27:49.915Z,3.12
2024-04-19T06:28:26.135Z,3.14
2024-04-19T06:28:59.198Z,3.11
2024-04-19T06:29:32.416Z,3.16
2024-04-19T06:30:06.215Z,3.40
2024-04-19T06:30:39.700Z,3.39
2024-04-19T06:31:14.305Z,3.28
2024-04-19T06:31:47.470Z,3.22
2024-04-19T06:32:20.733Z,3.31
2024-04-19T06:32:54.065Z,3.20
2024-04-19T06:33:27.287Z,3.21
2024-04-19T06:34:00.393Z,3.26
2024-04-19T06:34:33.659Z,3.37
2024-04-19T06:35:09.535Z,3.25
2024-04-19T06:35:42.688Z,3.25
2024-04-19T06:36:15.982Z,3.19
2024-04-19T06:36:49.123Z,3.15
2024-04-19T06:37:22.179Z,3.20
2024-04-19T06:37:55.361Z,3.26
2024-04-19T06:38:28.627Z,3.26
2024-04-19T06:39:03.662Z,3.30
2024-04-19T06:39:38.821Z,3.32
2024-04-19T06:40:13.866Z,3.34
2024-04-19T06:40:46.899Z,3.33
2024-04-19T06:41:19.971Z,3.43
2024-04-19T06:41:54.085Z,3.40
2024-04-19T06:42:27.323Z,3.47
2024-04-19T06:43:00.823Z,3.46
2024-04-19T06:43:34.020Z,3.47
2024-04-19T06:44:07.564Z,3.59
2024-04-19T06:44:40.598Z,3.51
2024-04-19T06:45:13.755Z,3.40
2024-04-19T06:45:47.374Z,3.39
2024-04-19T06:46:20.746Z,3.56
2024-04-19T06:46:54.046Z,3.44
2024-04-19T06:47:27.415Z,3.39
2024-04-19T06:48:00.665Z,3.33
2024-04-19T06:48:34.115Z,3.35
2024-04-19T06:49:07.276Z,3.38
2024-04-19T06:49:40.549Z,3.37
2024-04-19T06:50:14.130Z,3.44
2024-04-19T06:50:47.395Z,3.43
2024-04-19T06:51:20.777Z,3.69
2024-04-19T06:51:53.870Z,3.49
2024-04-19T06:52:27.340Z,3.57
2024-04-19T06:53:00.582Z,3.49
2024-04-19T06:53:33.754Z,3.44
2024-04-19T06:54:06.874Z,3.45
2024-04-19T06:54:39.960Z,3.52
2024-04-19T06:55:12.984Z,3.66
2024-04-19T06:55:46.163Z,3.74
2024-04-19T06:56:19.464Z,3.66
2024-04-19T06:56:52.562Z,3.59
2024-04-19T06:57:25.777Z,3.60
2024-04-19T06:57:59.286Z,3.75
2024-04-19T06:58:32.608Z,3.77
2024-04-19T06:59:08.053Z,3.70
2024-04-19T06:59:44.151Z,3.65
2024-04-19T07:00:27.930Z,3.72
2024-04-19T07:01:18.146Z,3.73
2024-04-19T07:01:52.160Z,3.68
2024-04-19T07:02:32.313Z,3.79
2024-04-19T07:03:09.857Z,3.76
2024-04-19T07:03:44.078Z,3.73
2024-04-19T07:04:17.403Z,3.73
2024-04-19T07:04:53.750Z,3.75
2024-04-19T07:05:27.237Z,3.78
2024-04-19T07:06:08.805Z,3.75
2024-04-19T07:06:43.725Z,3.70
2024-04-19T07:07:18.373Z,3.79
2024-04-19T07:07:51.607Z,3.95
2024-04-19T07:08:24.678Z,3.95
2024-04-19T07:08:58.172Z,3.84
2024-04-19T07:09:31.304Z,3.76
2024-04-19T07:10:05.185Z,3.75
2024-04-19T07:10:42.233Z,3.75
2024-04-19T07:11:15.334Z,3.79
2024-04-19T07:11:48.664Z,3.83
2024-04-19T07:12:21.649Z,3.80
2024-04-19T07:12:55.291Z,3.76
2024-04-19T07:13:28.524Z,3.81
2024-04-19T07:14:03.889Z,3.84
2024-04-19T07:14:36.973Z,3.89
2024-04-19T07:15:10.113Z,3.87
2024-04-19T07:15:44.304Z,3.88
2024-04-19T07:16:17.508Z,3.92
2024-04-19T07:16:51.059Z,3.93
2024-04-19T07:17:24.555Z,3.95
2024-04-19T07:17:57.732Z,3.87
2024-04-19T07:18:30.935Z,3.84
2024-04-19T07:19:03.991Z,3.86
2024-04-19T07:19:36.982Z,4.04
2024-04-19T07:20:10.211Z,4.21
2024-04-19T07:20:43.324Z,4.22
2024-04-19T07:21:16.532Z,4.17
2024-04-19T07:21:49.876Z,4.03
2024-04-19T07:22:22.997Z,4.21
2024-04-19T07:22:56.154Z,4.27
2024-04-19T07:23:29.657Z,4.13
2024-04-19T07:24:02.703Z,4.09
2024-04-19T07:24:35.664Z,4.21
2024-04-19T07:25:08.751Z,4.37
2024-04-19T07:25:41.971Z,4.26
2024-04-19T07:26:15.364Z,4.29
2024-04-19T07:26:48.605Z,4.27
2024-04-19T07:27:22.177Z,4.27
2024-04-19T07:27:56.565Z,4.39
2024-04-19T07:28:32.867Z,4.45
2024-04-19T07:29:06.563Z,4.27
2024-04-19T07:29:40.733Z,4.22
2024-04-19T07:30:15.608Z,4.29
2024-04-19T07:30:48.810Z,4.39
2024-04-19T07:31:22.298Z,4.32
2024-04-19T07:31:55.508Z,4.32
2024-04-19T07:32:28.692Z,4.31
2024-04-19T07:33:01.886Z,4.39
2024-04-19T07:33:35.024Z,4.39
2024-04-19T07:34:08.102Z,4.42
2024-04-19T07:34:41.244Z,4.50
2024-04-19T07:35:14.264Z,4.62
2024-04-19T07:35:48.090Z,4.58
2024-04-19T07:36:21.321Z,4.63
2024-04-19T07:36:54.934Z,4.75
2024-04-19T07:37:35.460Z,4.74
2024-04-19T07:38:14.363Z,4.70
2024-04-19T07:38:48.020Z,4.94
2024-04-19T07:39:21.150Z,4.85
2024-04-19T07:39:54.311Z,4.63